Time;durP1;ratioP1;P1;durP2;ratioP2;P2;SDS_P1;SDS_P2;PMS_P1;PMS_P2;Temp;Humidity;BMP_temperature;BMP_pressure;BME280_temperature;BME280_humidity;BME280_pressure;Samples;Min_cycle;Max_cycle;Signal;HPM_P1;HPM_P2
2023/12/14 00:01:18;;;;;;;9.25;6.82;;;;;;;20.29;49.23;99957.81;4617200;31;20059;-61
2023/12/14 00:03:46;;;;;;;8.75;6.47;;;;;;;20.27;48.73;99959.84;4615104;31;20063;-59
2023/12/14 00:06:14;;;;;;;9.68;7.00;;;;;;;20.28;49.06;99961.50;4619540;31;20051;-63
2023/12/14 00:08:42;;;;;;;9.00;6.43;;;;;;;20.27;49.63;99968.72;4617754;31;20070;-63
2023/12/14 00:11:11;;;;;;;8.70;7.05;;;;;;;20.26;49.51;99972.44;4620870;31;20059;-63
2023/12/14 00:13:39;;;;;;;8.18;7.18;;;;;;;20.25;48.81;99982.34;4618046;31;20060;-63
2023/12/14 00:16:07;;;;;;;9.93;7.90;;;;;;;20.24;49.08;99977.94;4619076;31;20066;-63
2023/12/14 00:18:36;;;;;;;10.75;7.75;;;;;;;20.22;48.72;99993.41;4616898;31;20067;-63
2023/12/14 00:21:04;;;;;;;8.70;7.20;;;;;;;20.22;48.64;100001.47;4616999;31;20064;-62
2023/12/14 00:23:33;;;;;;;8.05;7.10;;;;;;;20.21;48.51;100002.44;4618143;31;20543;-63
2023/12/14 00:26:00;;;;;;;8.82;7.30;;;;;;;20.19;48.44;99991.03;4618881;31;20063;-69
2023/12/14 00:28:28;;;;;;;11.70;8.38;;;;;;;20.17;48.41;99995.69;4617134;31;20055;-69
2023/12/14 00:31:00;;;;;;;9.48;7.20;;;;;;;20.16;48.38;99994.00;4619007;31;20051;-69
2023/12/14 00:33:27;;;;;;;11.70;8.15;;;;;;;20.15;48.33;100002.25;4612304;31;20052;-69
2023/12/14 00:35:56;;;;;;;9.50;7.03;;;;;;;20.15;48.46;100013.84;4612930;31;20070;-69
2023/12/14 00:38:24;;;;;;;9.15;7.68;;;;;;;20.15;48.35;100023.75;4632633;30;20067;-70
2023/12/14 00:40:51;;;;;;;8.00;6.88;;;;;;;20.14;48.47;100014.00;4620035;31;20070;-69
2023/12/14 00:43:19;;;;;;;9.52;7.35;;;;;;;20.14;48.40;100022.91;4622164;31;20056;-69
2023/12/14 00:45:46;;;;;;;7.60;6.65;;;;;;;20.12;48.42;100016.84;4620951;31;20064;-65
2023/12/14 00:48:14;;;;;;;9.35;7.20;;;;;;;20.13;48.57;100018.50;4620334;30;20068;-63
2023/12/14 00:50:42;;;;;;;8.82;7.50;;;;;;;20.13;48.23;100014.97;4619950;31;20436;-62
2023/12/14 00:53:09;;;;;;;10.82;8.05;;;;;;;20.11;48.39;100011.63;4621693;31;20060;-63
2023/12/14 00:55:36;;;;;;;9.65;7.50;;;;;;;20.11;48.20;100017.00;4620109;31;20051;-63
2023/12/14 00:58:04;;;;;;;9.38;7.90;;;;;;;20.10;48.16;100018.84;4619871;31;20063;-63
2023/12/14 01:00:31;;;;;;;8.93;7.05;;;;;;;20.10;48.17;100020.69;4619431;31;20109;-63
2023/12/14 01:02:58;;;;;;;7.93;6.63;;;;;;;20.09;48.14;100013.59;4633788;30;20527;-62
2023/12/14 01:05:26;;;;;;;9.23;7.70;;;;;;;20.09;48.21;100025.19;4619851;31;20059;-63
2023/12/14 01:07:53;;;;;;;8.75;7.13;;;;;;;20.08;48.26;100023.50;4619095;31;20075;-63
2023/12/14 01:10:21;;;;;;;8.30;7.22;;;;;;;20.08;48.11;100020.84;4619461;31;20051;-63
2023/12/14 01:12:48;;;;;;;9.57;7.78;;;;;;;20.09;48.21;100027.03;4621058;31;20063;-62
2023/12/14 01:15:16;;;;;;;7.90;7.03;;;;;;;20.07;48.25;100029.91;4620179;31;20068;-63
2023/12/14 01:17:43;;;;;;;9.50;7.00;;;;;;;20.08;48.26;100034.25;4619674;31;20527;-69
2023/12/14 01:20:11;;;;;;;9.55;7.20;;;;;;;20.08;48.23;100047.69;4619410;31;20059;-69
2023/12/14 01:22:38;;;;;;;8.80;7.07;;;;;;;20.07;48.23;100042.50;4621424;31;20063;-69
2023/12/14 01:25:06;;;;;;;8.63;6.88;;;;;;;20.08;48.17;100047.69;4620139;31;20059;-69
2023/12/14 01:27:34;;;;;;;8.18;6.68;;;;;;;20.07;48.43;100042.50;4618992;31;20059;-63
2023/12/14 01:30:01;;;;;;;7.72;6.63;;;;;;;20.07;48.20;100040.66;4618854;31;20060;-63
2023/12/14 01:32:28;;;;;;;7.07;6.25;;;;;;;20.07;48.35;100048.72;4620769;31;20100;-62
2023/12/14 01:34:55;;;;;;;7.78;6.95;;;;;;;20.07;48.27;100055.94;4606262;31;20063;-63
2023/12/14 01:37:23;;;;;;;8.73;6.60;;;;;;;20.07;48.18;100059.47;4610615;31;20059;-68
2023/12/14 01:39:50;;;;;;;9.60;6.25;;;;;;;20.06;48.12;100068.53;4631088;30;20066;-69
2023/12/14 01:42:18;;;;;;;7.65;6.43;;;;;;;20.05;48.07;100066.81;4619614;31;20056;-69
2023/12/14 01:44:45;;;;;;;7.65;6.45;;;;;;;20.06;47.89;100083.81;4619501;31;20086;-69
2023/12/14 01:47:12;;;;;;;7.07;6.32;;;;;;;20.05;48.24;100090.16;4618682;31;20424;-69
2023/12/14 01:49:41;;;;;;;7.63;5.95;;;;;;;20.05;48.20;100091.00;4619103;31;20063;-69
2023/12/14 01:52:08;;;;;;;8.15;6.50;;;;;;;20.05;48.22;100087.47;4620576;31;20440;-69
2023/12/14 01:54:36;;;;;;;8.52;7.03;;;;;;;20.05;48.03;100088.31;4619191;31;20047;-69
2023/12/14 01:57:04;;;;;;;7.95;6.63;;;;;;;20.05;48.03;100087.47;4618898;31;20055;-69
2023/12/14 01:59:31;;;;;;;7.97;6.80;;;;;;;20.05;48.16;100090.16;4618651;31;20130;-69
2023/12/14 02:01:59;;;;;;;7.95;6.28;;;;;;;20.06;48.07;100097.25;4620532;31;20059;-69
2023/12/14 02:04:27;;;;;;;7.25;6.28;;;;;;;20.04;48.23;100094.69;4619357;31;20055;-69
2023/12/14 02:06:54;;;;;;;7.68;6.65;;;;;;;20.05;48.25;100100.91;4618230;31;20060;-69
2023/12/14 02:09:22;;;;;;;7.03;6.00;;;;;;;20.05;48.24;100098.22;4618230;31;20059;-69
2023/12/14 02:11:49;;;;;;;8.25;6.65;;;;;;;20.04;48.06;100094.69;4620837;31;20052;-69
2023/12/14 02:14:16;;;;;;;7.97;6.50;;;;;;;20.03;48.05;100093.00;4619064;31;20051;-69
2023/12/14 02:16:44;;;;;;;9.13;6.53;;;;;;;20.04;48.27;100073.19;4618335;31;20055;-62
2023/12/14 02:19:11;;;;;;;7.57;6.15;;;;;;;20.02;48.29;100077.06;4618223;31;20059;-62
2023/12/14 02:21:39;;;;;;;8.38;6.80;;;;;;;20.03;48.17;100086.78;4620649;31;20455;-63
2023/12/14 02:24:06;;;;;;;7.15;5.90;;;;;;;20.02;48.26;100085.94;4619516;31;20055;-62
2023/12/14 02:26:33;;;;;;;7.60;6.15;;;;;;;20.03;48.24;100087.63;4630287;30;20079;-69
2023/12/14 02:29:01;;;;;;;8.10;6.57;;;;;;;20.03;48.08;100089.47;4618977;31;20074;-69
2023/12/14 02:31:28;;;;;;;8.00;6.38;;;;;;;20.02;48.30;100099.38;4619804;31;20058;-68
2023/12/14 02:33:56;;;;;;;7.63;6.43;;;;;;;20.03;48.38;100100.22;4618612;31;20535;-69
2023/12/14 02:36:23;;;;;;;8.70;6.38;;;;;;;20.01;48.11;100092.31;4615584;30;20052;-68
2023/12/14 02:38:50;;;;;;;6.85;6.15;;;;;;;20.02;48.07;100085.13;4613156;31;20067;-68
2023/12/14 02:41:18;;;;;;;7.93;6.47;;;;;;;20.01;48.27;100084.25;4619847;31;20056;-68
2023/12/14 02:43:45;;;;;;;8.27;6.80;;;;;;;20.00;48.30;100085.25;4618921;31;20426;-68
2023/12/14 02:46:15;;;;;;;7.57;6.18;;;;;;;19.99;48.11;100087.09;4618027;31;20056;-62
2023/12/14 02:48:43;;;;;;;8.95;6.13;;;;;;;20.00;48.21;100094.16;4618073;31;20538;-62
2023/12/14 02:51:14;;;;;;;6.65;5.88;;;;;;;19.99;48.28;100095.16;4632604;30;20064;-68
2023/12/14 02:53:42;;;;;;;7.63;6.05;;;;;;;19.99;48.10;100094.31;4617583;31;20511;-68
2023/12/14 02:56:11;;;;;;;8.18;6.57;;;;;;;19.97;48.17;100098.97;4617833;31;20062;-62
2023/12/14 02:58:38;;;;;;;7.60;6.40;;;;;;;19.99;48.09;100102.38;4617874;31;20082;-61
2023/12/14 03:01:06;;;;;;;8.23;6.82;;;;;;;19.97;48.17;100102.53;4620835;31;20066;-61
2023/12/14 03:03:33;;;;;;;8.07;6.70;;;;;;;19.98;48.08;100096.16;4616675;31;20059;-61
2023/12/14 03:06:01;;;;;;;9.68;7.25;;;;;;;19.97;47.97;100105.22;4617647;31;20063;-67
2023/12/14 03:08:28;;;;;;;6.63;5.80;;;;;;;19.98;48.12;100098.00;4618083;31;20078;-68
2023/12/14 03:10:56;;;;;;;7.20;5.70;;;;;;;19.98;48.01;100100.69;4620316;31;20376;-68
2023/12/14 03:13:23;;;;;;;8.02;6.63;;;;;;;19.97;47.91;100098.97;4612747;31;20411;-68
2023/12/14 03:15:51;;;;;;;7.63;6.47;;;;;;;19.97;47.96;100105.22;4617796;31;20071;-62
2023/12/14 03:18:18;;;;;;;7.70;6.30;;;;;;;19.99;47.91;100105.06;4617484;31;20062;-62
2023/12/14 03:20:45;;;;;;;8.70;6.70;;;;;;;19.97;47.90;100102.53;4632716;30;20102;-61
2023/12/14 03:23:13;;;;;;;7.85;6.00;;;;;;;19.97;47.81;100099.84;4612861;31;20056;-62
2023/12/14 03:25:40;;;;;;;6.68;5.93;;;;;;;19.96;47.77;100103.50;4617227;31;20158;-67
2023/12/14 03:28:09;;;;;;;8.52;6.25;;;;;;;19.97;47.87;100105.22;4617343;31;20067;-62
2023/12/14 03:30:36;;;;;;;7.30;6.05;;;;;;;19.96;47.84;100100.81;4620480;31;20529;-61
2023/12/14 03:33:06;;;;;;;7.25;6.40;;;;;;;19.98;47.91;100108.75;4613510;31;20060;-62
2023/12/14 03:35:35;;;;;;;7.28;5.93;;;;;;;19.96;47.85;100103.50;4615219;31;20077;-62
2023/12/14 03:38:03;;;;;;;9.02;6.68;;;;;;;19.96;47.77;100103.50;4601757;31;20064;-68
2023/12/14 03:40:30;;;;;;;7.88;5.78;;;;;;;19.96;47.93;100108.88;4620129;31;20094;-68
2023/12/14 03:42:58;;;;;;;6.80;5.45;;;;;;;19.96;47.77;100108.88;4617314;31;20059;-68
2023/12/14 03:45:25;;;;;;;8.50;6.70;;;;;;;19.96;47.82;100116.09;4617420;31;20056;-68
2023/12/14 03:47:54;;;;;;;8.43;7.03;;;;;;;19.96;47.80;100124.16;4617776;31;20083;-62
2023/12/14 03:50:21;;;;;;;9.05;6.70;;;;;;;19.96;47.83;100118.78;4619776;31;20059;-61
2023/12/14 03:52:49;;;;;;;8.57;6.60;;;;;;;19.96;47.87;100124.16;4617384;31;20056;-61
2023/12/14 03:55:16;;;;;;;7.68;6.15;;;;;;;19.96;47.91;100121.47;4617170;31;20047;-62
2023/12/14 03:57:44;;;;;;;7.25;6.35;;;;;;;19.96;48.06;100125.00;4617188;31;20501;-67
2023/12/14 04:00:13;;;;;;;7.10;5.65;;;;;;;19.96;47.82;100141.13;4619827;31;20074;-68
2023/12/14 04:02:40;;;;;;;7.20;5.65;;;;;;;19.95;47.84;100143.97;4617408;31;20523;-68
2023/12/14 04:05:08;;;;;;;8.15;6.32;;;;;;;19.95;47.92;100146.66;4617756;31;20055;-68
2023/12/14 04:07:40;;;;;;;8.85;6.60;;;;;;;19.94;47.84;100153.88;4620928;31;20412;-68
2023/12/14 04:10:12;;;;;;;8.23;6.43;;;;;;;19.96;48.12;100156.41;4622501;31;20059;-68
2023/12/14 04:12:39;;;;;;;9.80;6.88;;;;;;;19.94;47.85;100167.31;4620336;31;20052;-67
2023/12/14 04:15:09;;;;;;;7.65;6.38;;;;;;;19.95;48.13;100165.47;4615172;31;20067;-68
2023/12/14 04:17:36;;;;;;;8.32;5.95;;;;;;;19.94;48.18;100161.94;4622085;31;20056;-61
2023/12/14 04:20:05;;;;;;;7.05;5.85;;;;;;;19.94;48.03;100163.78;4621483;31;20369;-61
2023/12/14 04:22:33;;;;;;;7.88;6.25;;;;;;;19.93;48.05;100168.31;4620058;31;20064;-61
2023/12/14 04:25:01;;;;;;;7.82;5.82;;;;;;;19.93;48.05;100167.44;4620562;31;20059;-61
2023/12/14 04:27:29;;;;;;;7.22;5.65;;;;;;;19.94;48.08;100174.53;4620719;31;20058;-61
2023/12/14 04:29:57;;;;;;;8.90;7.15;;;;;;;19.93;48.00;100179.06;4625485;31;20062;-61
2023/12/14 04:32:25;;;;;;;7.57;6.30;;;;;;;19.93;47.84;100183.56;4620152;31;20461;-61
2023/12/14 04:34:53;;;;;;;10.10;7.25;;;;;;;19.94;47.86;100191.50;4620003;31;20075;-62
2023/12/14 04:37:20;;;;;;;8.55;6.20;;;;;;;19.93;47.99;100186.25;4615224;31;20060;-68
2023/12/14 04:39:47;;;;;;;7.45;6.45;;;;;;;19.93;47.69;100191.63;4609932;31;20073;-68
2023/12/14 04:42:15;;;;;;;6.50;5.80;;;;;;;19.92;47.89;100192.63;4620311;31;20063;-68
2023/12/14 04:44:42;;;;;;;8.90;6.30;;;;;;;19.91;48.01;100190.94;4619722;31;20075;-68
2023/12/14 04:47:10;;;;;;;7.43;6.28;;;;;;;19.91;47.99;100194.47;4621527;31;20052;-68
2023/12/14 04:49:37;;;;;;;7.28;6.35;;;;;;;19.91;48.08;100191.78;4620659;31;20063;-68
2023/12/14 04:52:05;;;;;;;6.78;5.63;;;;;;;19.90;47.95;100187.41;4619380;31;20393;-68
2023/12/14 04:54:33;;;;;;;8.02;6.20;;;;;;;19.91;47.79;100185.56;4619520;31;20082;-68
2023/12/14 04:57:00;;;;;;;7.95;6.20;;;;;;;19.90;47.69;100184.72;4621747;31;20405;-68
2023/12/14 04:59:27;;;;;;;7.30;5.75;;;;;;;19.89;47.74;100183.03;4620296;31;20066;-68
2023/12/14 05:01:55;;;;;;;8.32;6.25;;;;;;;19.91;47.67;100190.94;4619655;31;20056;-68
2023/12/14 05:04:22;;;;;;;6.82;6.10;;;;;;;19.90;47.71;100200.84;4633120;30;20079;-68
2023/12/14 05:06:50;;;;;;;7.65;6.10;;;;;;;19.91;47.69;100201.69;4621358;31;20059;-62
2023/12/14 05:09:17;;;;;;;7.88;6.10;;;;;;;19.90;47.54;100200.00;4620443;31;20062;-61
2023/12/14 05:11:44;;;;;;;8.27;6.00;;;;;;;19.91;47.68;100215.13;4619715;31;20051;-61
2023/12/14 05:14:12;;;;;;;7.55;6.15;;;;;;;19.91;47.77;100215.97;4619162;31;20056;-62
2023/12/14 05:16:39;;;;;;;6.80;5.45;;;;;;;19.91;47.65;100212.44;4620784;31;20079;-68
2023/12/14 05:19:07;;;;;;;6.75;5.40;;;;;;;19.91;47.74;100221.34;4620234;31;20066;-68
2023/12/14 05:21:34;;;;;;;7.55;5.57;;;;;;;19.90;47.57;100219.66;4618963;31;20056;-67
2023/12/14 05:24:02;;;;;;;6.38;5.35;;;;;;;19.92;48.14;100230.25;4619180;31;20505;-67
2023/12/14 05:26:30;;;;;;;6.03;4.90;;;;;;;19.93;48.25;100230.09;4621270;31;20060;-67
2023/12/14 05:28:57;;;;;;;6.75;5.03;;;;;;;19.93;48.36;100226.53;4619850;31;20421;-67
2023/12/14 05:31:24;;;;;;;6.75;4.97;;;;;;;19.92;48.24;100232.91;4619076;31;20059;-67
2023/12/14 05:33:52;;;;;;;5.50;4.38;;;;;;;19.92;48.20;100231.06;4619367;31;20056;-68
2023/12/14 05:36:19;;;;;;;5.50;4.22;;;;;;;19.94;48.05;100241.69;4620916;31;20056;-68
2023/12/14 05:38:47;;;;;;;6.40;5.22;;;;;;;19.93;48.08;100245.34;4612540;31;20060;-63
2023/12/14 05:41:17;;;;;;;6.72;4.22;;;;;;;19.93;47.88;100242.66;4610985;31;20059;-60
2023/12/14 05:43:44;;;;;;;7.07;5.30;;;;;;;19.93;47.93;100242.66;4618848;31;20052;-61
2023/12/14 05:46:23;;;;;;;6.05;4.85;;;;;;;19.94;48.08;100244.38;4621221;31;20086;-60
2023/12/14 05:48:51;;;;;;;5.65;4.45;;;;;;;19.93;48.26;100254.28;4614230;31;20063;-61
2023/12/14 05:51:32;;;;;;;5.78;4.72;;;;;;;19.95;48.47;100259.50;4619315;31;20055;-61
2023/12/14 05:53:59;;;;;;;5.15;4.45;;;;;;;19.94;48.26;100265.88;4620531;31;20055;-61
2023/12/14 05:56:27;;;;;;;6.35;4.78;;;;;;;19.93;48.25;100274.91;4619700;31;20070;-61
2023/12/14 05:58:54;;;;;;;6.47;5.13;;;;;;;19.93;47.86;100282.97;4618879;31;20051;-61
2023/12/14 06:01:23;;;;;;;6.03;4.70;;;;;;;19.93;47.80;100291.03;4609799;31;20060;-62
2023/12/14 06:03:51;;;;;;;6.18;4.45;;;;;;;19.92;48.03;100283.97;4620243;31;20051;-62
2023/12/14 06:06:19;;;;;;;6.95;4.97;;;;;;;19.92;47.99;100289.34;4619323;31;20443;-68
2023/12/14 06:08:46;;;;;;;5.57;4.53;;;;;;;19.92;48.03;100283.97;4618190;31;20060;-68
2023/12/14 06:11:14;;;;;;;5.70;4.63;;;;;;;19.90;48.04;100297.56;4613614;31;20052;-68
2023/12/14 06:13:41;;;;;;;5.93;4.65;;;;;;;19.91;48.01;100303.78;4624282;31;20071;-68
2023/12/14 06:16:12;;;;;;;7.07;5.05;;;;;;;19.91;47.90;100309.16;4617494;31;20074;-68
2023/12/14 06:18:43;;;;;;;5.00;4.40;;;;;;;19.90;47.90;100316.38;4618389;31;20052;-61
2023/12/14 06:21:11;;;;;;;6.00;4.75;;;;;;;19.89;48.00;100316.50;4618522;31;20060;-61
2023/12/14 06:23:39;;;;;;;6.43;4.72;;;;;;;19.89;48.02;100317.38;4620858;31;20051;-61
2023/12/14 06:26:06;;;;;;;8.40;4.95;;;;;;;19.88;47.89;100318.34;4618866;31;20059;-61
2023/12/14 06:28:34;;;;;;;5.28;4.38;;;;;;;19.89;47.71;100321.88;4625254;31;20500;-61
2023/12/14 06:31:01;;;;;;;5.22;4.30;;;;;;;19.88;48.03;100331.78;4618209;31;20373;-61
2023/12/14 06:33:29;;;;;;;5.07;4.43;;;;;;;19.88;47.78;100329.09;4620563;31;20056;-61
2023/12/14 06:35:57;;;;;;;5.75;4.15;;;;;;;19.88;47.84;100338.97;4625253;30;20070;-66
2023/12/14 06:38:24;;;;;;;5.93;4.70;;;;;;;19.89;47.80;100343.34;4616673;31;20063;-67
2023/12/14 06:40:52;;;;;;;5.38;4.20;;;;;;;19.87;47.97;100338.13;4604961;31;20059;-67
2023/12/14 06:43:19;;;;;;;4.60;4.15;;;;;;;19.88;47.76;100347.03;4620383;31;20055;-67
2023/12/14 06:45:46;;;;;;;5.20;4.25;;;;;;;19.87;47.72;100348.03;4611644;31;20059;-67
2023/12/14 06:48:14;;;;;;;5.22;3.80;;;;;;;19.87;47.67;100350.72;4617705;31;20063;-61
2023/12/14 06:50:41;;;;;;;5.68;4.75;;;;;;;19.87;47.65;100353.41;4618055;31;20060;-61
2023/12/14 06:53:11;;;;;;;5.28;4.38;;;;;;;19.88;47.48;100357.78;4620369;31;20059;-61
2023/12/14 06:55:38;;;;;;;5.85;4.63;;;;;;;19.87;47.70;100361.47;4617775;31;20074;-61
2023/12/14 06:58:11;;;;;;;5.30;4.45;;;;;;;19.87;47.71;100364.16;4617959;31;20064;-61
2023/12/14 07:00:38;;;;;;;7.13;4.38;;;;;;;19.87;47.65;100373.06;4630738;30;20403;-61
2023/12/14 07:03:05;;;;;;;5.82;4.15;;;;;;;19.87;47.61;100378.44;4620315;31;20531;-61
2023/12/14 07:05:33;;;;;;;5.38;4.00;;;;;;;19.86;47.75;100383.97;4617756;31;20056;-62
2023/12/14 07:08:00;;;;;;;5.15;4.20;;;;;;;19.88;47.57;100376.59;4618453;31;20062;-67
2023/12/14 07:10:28;;;;;;;4.82;3.78;;;;;;;19.87;47.81;100386.50;4612146;31;20053;-67
2023/12/14 07:12:55;;;;;;;5.97;4.90;;;;;;;19.87;47.55;100383.81;4620133;31;20051;-67
2023/12/14 07:15:23;;;;;;;4.95;4.15;;;;;;;19.88;47.68;100395.41;4617731;31;20060;-68
2023/12/14 07:17:51;;;;;;;5.47;4.35;;;;;;;19.87;47.55;100394.56;4617268;31;20056;-61
2023/12/14 07:20:18;;;;;;;5.45;3.72;;;;;;;19.88;47.57;100403.47;4617610;31;20064;-61
2023/12/14 07:22:45;;;;;;;5.00;4.43;;;;;;;19.87;47.78;100396.41;4620478;31;20058;-61
2023/12/14 07:25:13;;;;;;;5.82;4.03;;;;;;;19.87;47.65;100401.78;4617456;31;20058;-60
2023/12/14 07:27:41;;;;;;;5.03;3.95;;;;;;;19.87;47.80;100410.66;4618278;31;20063;-60
2023/12/14 07:30:10;;;;;;;6.13;4.63;;;;;;;19.87;47.73;100415.19;4617687;31;20539;-61
2023/12/14 07:32:38;;;;;;;5.80;4.15;;;;;;;19.88;47.57;100416.88;4619703;31;20051;-61
2023/12/14 07:35:06;;;;;;;6.10;4.88;;;;;;;19.87;47.63;100424.09;4617454;31;20056;-60
2023/12/14 07:37:34;;;;;;;5.35;3.70;;;;;;;19.87;47.90;100426.78;4617310;31;20143;-61
2023/12/14 07:40:03;;;;;;;5.45;4.45;;;;;;;19.88;47.70;100424.94;4614470;31;20063;-61
2023/12/14 07:42:31;;;;;;;5.50;4.63;;;;;;;19.87;47.68;100431.31;4612006;31;20527;-60
2023/12/14 07:44:59;;;;;;;6.40;4.55;;;;;;;19.87;47.75;100431.31;4620953;31;20056;-61
2023/12/14 07:47:27;;;;;;;8.20;4.63;;;;;;;19.87;47.63;100436.69;4620758;31;20416;-62
2023/12/14 07:49:54;;;;;;;5.32;4.28;;;;;;;19.87;47.75;100434.84;4621255;31;20056;-61
2023/12/14 07:52:22;;;;;;;5.28;4.18;;;;;;;19.87;47.84;100436.69;4622903;31;20055;-61
2023/12/14 07:54:49;;;;;;;6.70;4.95;;;;;;;19.87;47.88;100442.06;4620489;31;20054;-62
2023/12/14 07:57:17;;;;;;;5.45;4.30;;;;;;;19.87;47.76;100450.13;4621257;31;20052;-61
2023/12/14 07:59:46;;;;;;;5.10;4.20;;;;;;;19.86;47.88;100462.72;4621237;31;20063;-61
2023/12/14 08:02:13;;;;;;;6.07;4.50;;;;;;;19.87;47.81;100463.56;4622261;31;20134;-61
2023/12/14 08:04:41;;;;;;;6.22;4.68;;;;;;;19.88;47.80;100467.94;4620087;31;20044;-63
2023/12/14 08:07:08;;;;;;;6.07;4.60;;;;;;;19.91;47.69;100470.34;4623411;31;20083;-57
2023/12/14 08:09:35;;;;;;;5.53;4.60;;;;;;;19.93;47.35;100469.22;4621287;31;20060;-63
2023/12/14 08:12:03;;;;;;;6.55;4.55;;;;;;;19.93;47.73;100471.91;4622410;31;20055;-63
2023/12/14 08:14:33;;;;;;;5.75;4.40;;;;;;;19.92;47.93;100478.25;4615760;31;20504;-61
2023/12/14 08:17:01;;;;;;;5.80;4.40;;;;;;;19.94;47.95;100483.50;4633284;30;20064;-58
2023/12/14 08:19:29;;;;;;;7.43;5.70;;;;;;;19.96;47.75;100481.50;4621980;31;20067;-57
2023/12/14 08:21:56;;;;;;;5.97;4.53;;;;;;;19.99;47.43;100489.28;4622143;31;20055;-58
2023/12/14 08:24:23;;;;;;;5.68;4.68;;;;;;;20.02;47.36;100494.34;4620152;31;20048;-58
2023/12/14 08:26:51;;;;;;;5.70;4.45;;;;;;;20.05;47.20;100499.41;4619888;31;20063;-59
2023/12/14 08:29:18;;;;;;;6.28;5.18;;;;;;;20.06;47.29;100500.28;4621278;31;20063;-57
2023/12/14 08:31:46;;;;;;;6.30;4.72;;;;;;;20.06;47.38;100505.66;4621015;31;20055;-61
2023/12/14 08:34:14;;;;;;;6.28;4.88;;;;;;;20.09;47.61;100505.34;4619130;31;20052;-54
2023/12/14 08:36:42;;;;;;;9.27;7.65;;;;;;;20.09;47.14;100511.56;4619503;31;20139;-62
2023/12/14 08:39:09;;;;;;;11.43;9.23;;;;;;;20.11;46.69;100514.13;4621106;31;20067;-57
2023/12/14 08:41:36;;;;;;;12.13;10.10;;;;;;;20.11;46.38;100516.81;4612824;31;20059;-57
2023/12/14 08:44:04;;;;;;;11.82;9.52;;;;;;;20.11;46.40;100524.88;4614936;31;20071;-61
2023/12/14 08:46:41;;;;;;;12.73;9.82;;;;;;;20.11;46.30;100517.66;4619735;31;20066;-58
2023/12/14 08:49:10;;;;;;;12.98;10.85;;;;;;;20.12;46.05;100526.56;4621821;31;20515;-58
2023/12/14 08:51:38;;;;;;;14.25;11.75;;;;;;;20.11;45.77;100520.34;4618423;31;20389;-64
2023/12/14 08:54:06;;;;;;;14.57;12.48;;;;;;;20.09;45.68;100519.63;4612990;31;20070;-58
2023/12/14 08:56:33;;;;;;;13.02;11.45;;;;;;;20.09;45.70;100518.78;4612219;31;20056;-58
2023/12/14 08:59:03;;;;;;;13.82;11.75;;;;;;;20.08;45.72;100517.09;4625671;31;20051;-62
2023/12/14 09:01:31;;;;;;;13.07;10.73;;;;;;;20.06;45.78;100522.63;4613661;31;20056;-59
2023/12/14 09:03:58;;;;;;;14.25;11.25;;;;;;;20.06;45.79;100537.91;4619217;31;20074;-59
2023/12/14 09:06:26;;;;;;;13.38;11.98;;;;;;;20.06;45.83;100544.13;4618855;31;20066;-62
2023/12/14 09:08:53;;;;;;;14.02;12.23;;;;;;;20.06;45.73;100554.03;4622029;31;20063;-60
2023/12/14 09:11:21;;;;;;;14.63;12.25;;;;;;;20.06;45.64;100556.72;4619382;31;20064;-62
2023/12/14 09:13:48;;;;;;;17.15;13.07;;;;;;;20.05;45.81;100563.91;4619379;31;20087;-62
2023/12/14 09:16:16;;;;;;;14.68;13.02;;;;;;;20.04;45.66;100570.28;4619232;31;20504;-60
2023/12/14 09:18:43;;;;;;;15.43;12.57;;;;;;;20.03;45.66;100573.97;4622415;31;20059;-58
2023/12/14 09:21:10;;;;;;;15.45;13.38;;;;;;;20.05;45.83;100581.88;4619445;31;20060;-63
2023/12/14 09:23:38;;;;;;;14.90;13.25;;;;;;;20.04;45.69;100591.78;4619485;31;20068;-59
2023/12/14 09:26:05;;;;;;;16.20;13.55;;;;;;;20.05;45.67;100584.56;4618873;31;20059;-52
2023/12/14 09:28:33;;;;;;;17.98;13.32;;;;;;;20.03;45.53;100586.56;4622261;31;20059;-52
2023/12/14 09:31:00;;;;;;;16.52;13.02;;;;;;;20.02;45.55;100580.34;4612717;31;20508;-58
2023/12/14 09:33:28;;;;;;;15.05;13.15;;;;;;;20.03;45.58;100592.78;4618916;31;20056;-58
2023/12/14 09:35:56;;;;;;;15.07;12.18;;;;;;;20.01;45.71;100589.38;4615834;31;20413;-60
2023/12/14 09:38:24;;;;;;;13.60;11.35;;;;;;;20.01;45.90;100608.19;4619994;31;20420;-59
2023/12/14 09:40:52;;;;;;;13.55;10.88;;;;;;;20.03;46.19;100603.53;4618600;31;20055;-58
2023/12/14 09:43:20;;;;;;;13.73;10.30;;;;;;;20.04;45.88;100609.75;4603159;31;20063;-58
2023/12/14 09:45:50;;;;;;;11.23;9.52;;;;;;;20.06;46.05;100610.47;4614917;31;20070;-59
2023/12/14 09:48:17;;;;;;;13.25;10.55;;;;;;;20.08;46.09;100605.78;4621519;31;20062;-59
2023/12/14 09:50:46;;;;;;;12.50;9.55;;;;;;;20.10;45.96;100620.78;4617084;31;20432;-61
2023/12/14 09:53:13;;;;;;;9.93;8.75;;;;;;;20.10;45.93;100620.78;4618772;31;20056;-58
2023/12/14 09:55:41;;;;;;;11.32;9.32;;;;;;;20.12;45.89;100617.94;4618733;31;20052;-60
2023/12/14 09:58:10;;;;;;;9.90;8.80;;;;;;;20.13;45.94;100627.69;4621081;31;20500;-49
2023/12/14 10:00:41;;;;;;;11.00;9.50;;;;;;;20.15;46.08;100623.06;4618234;31;20051;-56
2023/12/14 10:03:17;;;;;;;10.90;8.88;;;;;;;20.14;45.95;100627.59;4617761;31;20415;-59
2023/12/14 10:05:46;;;;;;;11.30;8.95;;;;;;;20.15;45.98;100623.91;4619686;31;20421;-58
2023/12/14 10:08:18;;;;;;;10.95;9.45;;;;;;;20.17;46.02;100631.81;4617521;31;20055;-57
2023/12/14 10:10:52;;;;;;;10.48;8.85;;;;;;;20.17;45.92;100635.34;4618101;31;20060;-58
2023/12/14 10:13:21;;;;;;;10.05;8.98;;;;;;;20.19;46.07;100636.06;4618313;31;20063;-59
2023/12/14 10:15:49;;;;;;;9.35;8.27;;;;;;;20.20;45.99;100647.66;4619846;31;20161;-59
2023/12/14 10:18:25;;;;;;;10.63;8.55;;;;;;;20.21;45.99;100647.50;4618340;31;20060;-57
2023/12/14 10:20:53;;;;;;;11.18;7.80;;;;;;;20.21;45.98;100642.13;4617978;31;20126;-59
2023/12/14 10:23:20;;;;;;;8.77;7.88;;;;;;;20.22;46.00;100643.84;4619177;31;20059;-61
2023/12/14 10:25:50;;;;;;;8.80;7.90;;;;;;;20.22;46.07;100635.78;4619264;31;20540;-60
2023/12/14 10:28:18;;;;;;;8.95;7.70;;;;;;;20.24;46.15;100646.38;4617757;31;20070;-59
2023/12/14 10:30:45;;;;;;;9.48;8.15;;;;;;;20.25;46.10;100642.69;4618048;31;20068;-58
2023/12/14 10:33:15;;;;;;;9.00;8.02;;;;;;;20.25;46.01;100640.88;4619592;31;20127;-58
2023/12/14 10:35:46;;;;;;;10.15;7.95;;;;;;;20.27;46.02;100639.88;4618932;31;20066;-59
2023/12/14 10:38:17;;;;;;;9.82;8.48;;;;;;;20.27;46.03;100645.25;4617793;31;20060;-62
2023/12/14 10:40:46;;;;;;;9.40;8.13;;;;;;;20.27;46.08;100642.56;4617953;31;20075;-60
2023/12/14 10:43:15;;;;;;;10.20;7.72;;;;;;;20.27;46.16;100648.78;4613145;31;20074;-59
2023/12/14 10:46:09;;;;;;;9.48;7.57;;;;;;;20.27;46.12;100650.63;4609266;31;20060;-59
2023/12/14 10:48:41;;;;;;;9.93;8.35;;;;;;;20.28;46.21;100660.38;4618110;31;20067;-60
2023/12/14 10:51:11;;;;;;;9.15;8.05;;;;;;;20.28;46.08;100655.00;4620609;31;20055;-60
2023/12/14 10:53:39;;;;;;;9.70;8.70;;;;;;;20.27;46.13;100662.22;4610843;31;20062;-60
2023/12/14 10:56:10;;;;;;;10.07;8.20;;;;;;;20.28;46.03;100666.59;4618002;31;20427;-62
2023/12/14 10:58:55;;;;;;;9.32;8.32;;;;;;;20.28;45.93;100663.91;4614852;31;20064;-58
2023/12/14 11:01:24;;;;;;;9.85;8.85;;;;;;;20.28;46.01;100655.84;4617604;31;20059;-59
2023/12/14 11:03:56;;;;;;;9.35;8.23;;;;;;;20.29;46.00;100654.00;4617262;31;20056;-57
2023/12/14 11:06:33;;;;;;;9.65;8.35;;;;;;;20.29;45.92;100657.53;4617588;31;20420;-58
2023/12/14 11:09:13;;;;;;;10.45;8.65;;;;;;;20.29;46.01;100665.59;4623339;31;20059;-59
2023/12/14 11:11:53;;;;;;;9.38;7.68;;;;;;;20.29;46.00;100664.75;4618136;31;20063;-58
2023/12/14 11:14:22;;;;;;;10.18;8.48;;;;;;;20.29;46.03;100659.38;4614722;31;20398;-59
2023/12/14 11:16:54;;;;;;;9.88;8.20;;;;;;;20.30;45.96;100661.94;4622851;31;20063;-61
2023/12/14 11:19:21;;;;;;;9.05;8.05;;;;;;;20.29;46.10;100662.06;4617552;31;20439;-63
2023/12/14 11:22:09;;;;;;;10.25;8.60;;;;;;;20.29;46.15;100667.44;4617591;31;20551;-63
2023/12/14 11:24:37;;;;;;;8.77;7.90;;;;;;;20.29;46.06;100679.06;4625382;31;20076;-62
2023/12/14 11:27:06;;;;;;;9.27;8.38;;;;;;;20.30;46.01;100680.78;4617518;31;20412;-63
2023/12/14 11:29:36;;;;;;;10.32;8.57;;;;;;;20.30;46.13;100685.31;4619038;31;20066;-60